Lluvia Desde: 14-11-2018 22:00 Hasta: 15-11-2018 22:59 Advertencias para: Lluvia Nivel: Rojo info button
 

Informes METAR

 

KSJC - San Jose, California, USA
Distancia de la estación: NE 14km
Actualización: 15/11/2018 05:53
Calima, Muy nuboso
Calima, Muy nuboso
 Viento de SE
Viento: SE 7 km/h
Temperatura: 11°C
Rocío: 1°C
Humedad: 50%
Barómetro: 1024 hPa
Resumen: Calima
Nubes: Muy nuboso
Visibilidad: 5 km
Detalles de las nubes: Poco nuboso 30 m
Parcialmente nuboso 366 m
Muy nuboso 610 m
2018/11/15 04:53 KSJC 150453Z 13004KT 3SM HZ FEW001 SCT012 BKN020 11/01 A3024 RMK AO2 SLP238 FU FEW001 FU SCT012 FU BKN020 T01060011
KNUQ - Moffett Nas/Mtn, California, USA
Distancia de la estación: N 14km
Actualización: 15/11/2018 05:56
Contaminación, Despejado
Contaminación, Despejado
 Viento de calm
Viento: Calma
Temperatura: 9°C
Rocío: 1°C
Humedad: 58%
Barómetro: 1024 hPa
Resumen: Contaminación
Nubes: Despejado
Visibilidad: 6 km
2018/11/15 04:56 KNUQ 150456Z 00000KT 4SM FU CLR 09/01 A3024 RMK AO2 SLP243 T00940011
 
KPAO - Palo Alto, California, USA
Distancia de la estación: NNO 23km
Actualización: 15/11/2018 05:47
Contaminación, Despejado
Contaminación, Despejado
 Viento de calm
Viento: Calma
Temperatura: 8°C
Rocío: 3°C
Humedad: 71%
Barómetro: 1024.4 hPa
Resumen: Contaminación
Nubes: Despejado
Visibilidad: 0 km
2018/11/15 04:47 KPAO 150447Z 00000KT 2 SM FU SKC 08/03 A3025 RMK LAST
KRHV - San Jose/Reid, California, USA
Distancia de la estación: ENE 19km
Actualización: 14/11/2018 23:48
NOT Current
Contaminación, Despejado
Contaminación, Despejado
 Viento de NNO
Viento: NNO 9 km/h
Temperatura: 20°C
Rocío: 0°C
Humedad: 26%
Barómetro: 1023.4 hPa
Resumen: Contaminación
Nubes: Despejado
Visibilidad: 3 km
2018/11/14 22:48 KRHV 142248Z 34005KT 2SM FU SKC 20/00 A3022
 
KOAK - Oakland, California, USA
Distancia de la estación: NNO 50km
Actualización: 15/11/2018 05:53
Calima, Parcialmente nuboso
Calima, Parcialmente nuboso
 Viento de calm
Viento: Calma
Temperatura: 10°C
Rocío: 1°C
Humedad: 54%
Barómetro: 1024.4 hPa
Resumen: Calima
Nubes: Parcialmente nuboso
Visibilidad: 5 km
Detalles de las nubes: Parcialmente nuboso 579 m
2018/11/15 04:53 KOAK 150453Z 00000KT 3SM HZ SCT019 10/01 A3025 RMK AO2 SLP243 FU SCT019 T01000006
KSQL - San Carlos Airpo, California, USA
Distancia de la estación: NO 34km
Actualización: 15/11/2018 05:47
Contaminación, Calima, Parcialmente nuboso
Contaminación, Calima, Parcialmente nuboso
 Viento de calm
Viento: Calma
Temperatura: 10°C
Rocío: -1°C
Humedad: 47%
Barómetro: 1024.4 hPa
Resumen: Contaminación, Calima
Nubes: Parcialmente nuboso
Visibilidad: 6 km
Detalles de las nubes: Parcialmente nuboso 549 m
2018/11/15 04:47 KSQL 150447Z 00000KT 4SM FU HZ SCT018 10/M01 A3025 RMK LAST
 
KSFO - San Francisco, California, USA
Distancia de la estación: NO 49km
Actualización: 15/11/2018 05:56
Calima, Muy nuboso
Calima, Muy nuboso
 Viento de calm
Viento: Calma
Temperatura: 13°C
Rocío: -1°C
Humedad: 38%
Barómetro: 1023.7 hPa
Resumen: Calima
Nubes: Muy nuboso
Visibilidad: 5 km
Detalles de las nubes: Poco nuboso 152 m
Muy nuboso 701 m
2018/11/15 04:56 KSFO 150456Z 00000KT 3SM HZ FEW005 BKN023 13/M01 A3023 RMK AO2 SLP237 T01281011
KE16 - San Martin, California, USA
Distancia de la estación: ESE 43km
Actualización: 15/11/2018 05:40

 
2018/11/15 04:40 KE16 150440Z AUTO RMK AO2
 
KWVI - Watsonville, California, USA
Distancia de la estación: SSE 44km
Actualización: 15/11/2018 05:53
Despejado
Despejado
 Viento de NNO
Viento: NNO 7 km/h
Temperatura: 11°C
Rocío: -4°C
Humedad: 35%
Barómetro: 1023.7 hPa
Nubes: Despejado
Visibilidad: 16 km
2018/11/15 04:53 KWVI 150453Z AUTO 33004KT 10SM CLR 11/M04 A3023 RMK AO2 SLP235 T01061039 $
KHAF - Half Moon Bay, California, USA
Distancia de la estación: ONO 50km
Actualización: 15/11/2018 06:00
Calima, Cubierto
Calima, Cubierto
 Viento de NE
Viento: NE 6 km/h
Temperatura: 7°C
Rocío: 0°C
Humedad: 61%
Barómetro: 1023.7 hPa
Resumen: Calima
Nubes: Cubierto
Visibilidad: 6 km
Detalles de las nubes: Muy nuboso 579 m
Cubierto 1158 m
2018/11/15 05:00 KHAF 150500Z AUTO 05003KT 4SM HZ BKN019 OVC038 07/00 A3023 RMK AO2
 
KHWD - Hayward, California, USA
Distancia de la estación: N 44km
Actualización: 15/11/2018 05:54
Calima, Contaminación, Despejado
Calima, Contaminación, Despejado
 Viento de calm
Viento: Calma
Temperatura: 11°C
Rocío: -4°C
Humedad: 35%
Barómetro: 1024 hPa
Resumen: Calima, Contaminación
Nubes: Despejado
Visibilidad: 4 km
2018/11/15 04:54 KHWD 150454Z 00000KT 2 1/2SM HZ FU CLR 11/M04 A3024 RMK AO2 SLP249 T01111039
KLVK - Livermore, California, USA
Distancia de la estación: NNE 51km
Actualización: 15/11/2018 05:53
Calima, Contaminación, Muy nuboso
Calima, Contaminación, Muy nuboso
 Viento de E
Viento: E 6 km/h
Temperatura: 8°C
Rocío: -6°C
Humedad: 37%
Barómetro: 1024 hPa
Resumen: Calima, Contaminación
Nubes: Muy nuboso
Visibilidad: 3 km
Detalles de las nubes: Muy nuboso 518 m
2018/11/15 04:53 KLVK 150453Z 09003KT 2SM HZ FU BKN017 08/M06 A3024 RMK AO2 SLP241 T00781061